Thunder radar more information blitzortung!


Radar de pluja more information rain snow radar


Visita la nostra xarxa de llocs de meteo:

Template documentation
and downloads

And another site



No particular awareness of the weather is required.    There are no Weather-warnings

Pagina Historial Weather Underground text

Diari Resum Marc 12, 2016 Unitats:  Mètric    Imperial   Tant
« Previous Dia
SegĂźent Dia »
Diari Setmana Mensual Anual Personalitzada
  Maxima: Minima: Media:
Temperatura: 17.5 °C 6.7 °C 12.3 °C
Punt de rosada: 2.9 °C -0.8 °C 0.5 °C
Humitat: 61 % 32 % 46 %
Wind Speed: 19.8 km/h 0.0 km/h 6.8 km/h
RĂ fegues de vent: 19.8 km/h - -
Vent:- - South
Pression baro: 1023.9 hPa 1019.9 hPa -
Precipitacions: 0.0 mm    
Historical Graphs
 
 
Dades de taula per Marc 12, 2016
Temps Temperatura Punt de rosada Pression baro Vent Wind Speed RĂ fegues de vent Humitat Rainfall Rate (Hourly)
11:33 11.6 °C 1.8 °C 1023.9 hPa ENE 3.7 km/h 3.7 km/h 51 % 0.0 mm
11:38 11.8 °C 2.0 °C 1023.9 hPa ENE 5.6 km/h 5.6 km/h 51 % 0.0 mm
11:43 12.0 °C 2.2 °C 1023.9 hPa NNE 5.6 km/h 5.6 km/h 51 % 0.0 mm
11:48 12.2 °C 2.1 °C 1023.9 hPa SE 5.6 km/h 5.6 km/h 50 % 0.0 mm
11:53 12.2 °C 2.1 °C 1023.9 hPa ESE 7.4 km/h 7.4 km/h 50 % 0.0 mm
11:58 12.2 °C 2.1 °C 1022.9 hPa ENE 5.6 km/h 5.6 km/h 50 % 0.0 mm
12:08 12.3 °C 1.9 °C 1022.9 hPa East 10.0 km/h 10.0 km/h 49 % 0.0 mm
12:13 12.1 °C 1.4 °C 1021.9 hPa ESE 9.3 km/h 9.3 km/h 48 % 0.0 mm
12:18 12.2 °C 1.5 °C 1021.9 hPa East 7.4 km/h 7.4 km/h 48 % 0.0 mm
12:23 12.8 °C 2.3 °C 1021.9 hPa SSW 7.4 km/h 7.4 km/h 49 % 0.0 mm
12:28 13.2 °C 2.7 °C 1020.9 hPa WSW 5.6 km/h 5.6 km/h 49 % 0.0 mm
12:33 13.4 °C 2.6 °C 1020.9 hPa East 3.9 km/h 3.9 km/h 48 % 0.0 mm
12:38 13.0 °C 1.9 °C 1020.9 hPa NNE 7.4 km/h 7.4 km/h 47 % 0.0 mm
12:43 13.1 °C 2.1 °C 1021.9 hPa NNE 5.6 km/h 5.6 km/h 47 % 0.0 mm
12:48 12.9 °C 1.8 °C 1021.9 hPa East 5.6 km/h 5.6 km/h 47 % 0.0 mm
12:53 13.4 °C 2.3 °C 1021.9 hPa ENE 7.4 km/h 7.4 km/h 47 % 0.0 mm
12:58 13.1 °C 1.7 °C 1020.9 hPa ESE 3.7 km/h 3.9 km/h 46 % 0.0 mm
13:03 13.5 °C 2.1 °C 1020.9 hPa ESE 9.3 km/h 9.3 km/h 46 % 0.0 mm
13:08 14.1 °C 2.7 °C 1020.9 hPa ESE 7.4 km/h 7.4 km/h 46 % 0.0 mm
13:13 14.4 °C 2.9 °C 1019.9 hPa East 4.7 km/h 4.7 km/h 46 % 0.0 mm
13:18 14.4 °C 2.9 °C 1019.9 hPa ENE 11.1 km/h 11.1 km/h 46 % 0.0 mm
13:23 13.9 °C 2.2 °C 1019.9 hPa North 13.0 km/h 13.0 km/h 45 % 0.0 mm
13:28 14.6 °C 2.8 °C 1019.9 hPa WNW 3.7 km/h 3.7 km/h 45 % 0.0 mm
13:33 15.2 °C 2.7 °C 1019.9 hPa WSW 7.4 km/h 7.4 km/h 43 % 0.0 mm
13:38 15.3 °C 2.1 °C 1019.9 hPa NNE 13.0 km/h 13.0 km/h 41 % 0.0 mm
13:43 14.6 °C 1.5 °C 1020.9 hPa NNE 9.3 km/h 9.3 km/h 41 % 0.0 mm
13:48 14.4 °C 1.3 °C 1020.9 hPa NE 7.4 km/h 7.4 km/h 41 % 0.0 mm
13:53 14.6 °C 1.1 °C 1020.9 hPa NNE 9.3 km/h 9.3 km/h 40 % 0.0 mm
13:58 14.6 °C 1.1 °C 1019.9 hPa ESE 3.7 km/h 3.9 km/h 40 % 0.0 mm
14:08 15.5 °C 1.9 °C 1019.9 hPa NW 7.4 km/h 7.4 km/h 40 % 0.0 mm
14:13 16.0 °C 2.1 °C 1019.9 hPa ENE 5.6 km/h 5.6 km/h 39 % 0.0 mm
14:18 15.5 °C 0.8 °C 1019.9 hPa ENE 7.4 km/h 7.4 km/h 37 % 0.0 mm
14:23 15.6 °C 1.3 °C 1019.9 hPa West 7.4 km/h 7.4 km/h 38 % 0.0 mm
14:28 15.9 °C 1.2 °C 1019.9 hPa WSW 7.4 km/h 7.4 km/h 37 % 0.0 mm
14:33 15.6 °C 0.2 °C 1019.9 hPa South 9.3 km/h 9.3 km/h 35 % 0.0 mm
14:38 15.9 °C 0.4 °C 1019.9 hPa WSW 7.4 km/h 7.4 km/h 35 % 0.0 mm
14:43 16.2 °C 0.7 °C 1019.9 hPa WSW 9.3 km/h 9.3 km/h 35 % 0.0 mm
14:48 16.0 °C 0.1 °C 1019.9 hPa WNW 9.3 km/h 9.3 km/h 34 % 0.0 mm
14:53 15.9 °C 0.1 °C 1019.9 hPa SE 4.2 km/h 4.2 km/h 34 % 0.0 mm
14:58 16.5 °C 0.6 °C 1019.9 hPa SW 7.4 km/h 7.4 km/h 34 % 0.0 mm
15:03 16.4 °C 0.5 °C 1019.9 hPa ESE 3.7 km/h 3.7 km/h 34 % 0.0 mm
15:08 16.3 °C 0.0 °C 1019.9 hPa SSW 13.0 km/h 13.0 km/h 33 % 0.0 mm
15:13 16.6 °C 0.7 °C 1019.9 hPa ENE 3.7 km/h 3.7 km/h 34 % 0.0 mm
15:18 16.5 °C 0.6 °C 1019.9 hPa South 3.7 km/h 3.7 km/h 34 % 0.0 mm
15:23 16.5 °C 0.6 °C 1019.9 hPa SW 9.3 km/h 9.3 km/h 34 % 0.0 mm
15:28 16.5 °C 0.6 °C 1019.9 hPa SSW 3.9 km/h 3.9 km/h 34 % 0.0 mm
15:33 16.8 °C 0.8 °C 1019.9 hPa NNE 3.7 km/h 3.7 km/h 34 % 0.0 mm
15:43 17.0 °C 1.0 °C 1020.9 hPa South 3.7 km/h 3.7 km/h 34 % 0.0 mm
15:53 17.1 °C 0.7 °C 1020.9 hPa WSW 9.3 km/h 9.3 km/h 33 % 0.0 mm
16:03 17.3 °C 0.8 °C 1020.9 hPa NNE 9.3 km/h 9.3 km/h 33 % 0.0 mm
16:08 17.5 °C 1.1 °C 1020.9 hPa WSW 9.3 km/h 9.3 km/h 33 % 0.0 mm
16:13 16.7 °C -0.1 °C 1020.9 hPa SSW 11.1 km/h 11.1 km/h 32 % 0.0 mm
16:18 16.9 °C 0.1 °C 1020.9 hPa ESE 5.6 km/h 5.6 km/h 32 % 0.0 mm
16:23 16.7 °C 0.7 °C 1020.9 hPa South 13.0 km/h 13.0 km/h 34 % 0.0 mm
16:28 16.6 °C 0.7 °C 1021.9 hPa WSW 9.7 km/h 9.7 km/h 34 % 0.0 mm
16:33 16.2 °C 0.7 °C 1021.9 hPa WSW 13.0 km/h 13.0 km/h 35 % 0.0 mm
16:38 16.3 °C 0.8 °C 1021.9 hPa SW 5.6 km/h 5.6 km/h 35 % 0.0 mm
16:43 16.1 °C 0.6 °C 1021.9 hPa SSW 9.3 km/h 9.3 km/h 35 % 0.0 mm
16:48 16.1 °C 0.6 °C 1021.9 hPa WSW 18.5 km/h 18.5 km/h 35 % 0.0 mm
16:53 15.6 °C 0.2 °C 1021.9 hPa SSW 11.1 km/h 11.1 km/h 35 % 0.0 mm
16:58 15.7 °C 0.3 °C 1021.9 hPa SSW 15.8 km/h 15.8 km/h 35 % 0.0 mm
17:03 15.6 °C 0.2 °C 1021.9 hPa WSW 19.8 km/h 19.8 km/h 35 % 0.0 mm
17:08 15.4 °C 0.0 °C 1021.9 hPa WSW 13.0 km/h 13.0 km/h 35 % 0.0 mm
17:13 15.2 °C -0.2 °C 1021.9 hPa SSW 14.8 km/h 14.8 km/h 35 % 0.0 mm
17:18 15.1 °C -0.3 °C 1021.9 hPa SW 13.0 km/h 13.0 km/h 35 % 0.0 mm
17:23 14.9 °C -0.4 °C 1021.9 hPa SW 9.3 km/h 9.3 km/h 35 % 0.0 mm
17:28 14.8 °C -0.6 °C 1021.9 hPa SW 13.0 km/h 13.0 km/h 35 % 0.0 mm
17:33 14.8 °C -0.6 °C 1021.9 hPa WSW 9.3 km/h 9.3 km/h 35 % 0.0 mm
17:38 14.7 °C -0.6 °C 1021.9 hPa WSW 14.8 km/h 14.8 km/h 35 % 0.0 mm
17:43 14.6 °C -0.7 °C 1021.9 hPa SW 16.7 km/h 16.7 km/h 35 % 0.0 mm
17:48 14.3 °C -0.6 °C 1021.9 hPa West 13.0 km/h 13.0 km/h 36 % 0.0 mm
17:53 14.2 °C -0.7 °C 1021.9 hPa WSW 9.3 km/h 9.3 km/h 36 % 0.0 mm
17:58 14.1 °C -0.8 °C 1021.9 hPa WSW 9.3 km/h 9.3 km/h 36 % 0.0 mm
18:03 14.0 °C -0.5 °C 1021.9 hPa SW 9.3 km/h 9.3 km/h 37 % 0.0 mm
18:08 13.8 °C -0.7 °C 1021.9 hPa WSW 11.1 km/h 11.1 km/h 37 % 0.0 mm
18:13 13.6 °C -0.8 °C 1021.9 hPa SW 9.3 km/h 9.3 km/h 37 % 0.0 mm
18:18 13.3 °C -0.7 °C 1021.9 hPa WSW 11.1 km/h 11.1 km/h 38 % 0.0 mm
18:28 12.8 °C -0.8 °C 1021.9 hPa SW 10.0 km/h 10.0 km/h 39 % 0.0 mm
18:38 12.5 °C -0.8 °C 1021.9 hPa SSW 7.4 km/h 7.4 km/h 40 % 0.0 mm
18:43 12.3 °C -0.6 °C 1021.9 hPa SW 9.3 km/h 9.3 km/h 41 % 0.0 mm
18:48 12.2 °C -0.7 °C 1021.9 hPa SW 9.7 km/h 9.7 km/h 41 % 0.0 mm
18:53 12.0 °C -0.6 °C 1021.9 hPa WSW 9.3 km/h 9.3 km/h 42 % 0.0 mm
18:58 11.8 °C -0.7 °C 1021.9 hPa WSW 9.5 km/h 9.5 km/h 42 % 0.0 mm
19:03 11.7 °C -0.8 °C 1021.9 hPa SW 5.6 km/h 5.6 km/h 42 % 0.0 mm
19:08 11.7 °C -0.5 °C 1021.9 hPa WSW 5.6 km/h 5.6 km/h 43 % 0.0 mm
19:13 11.3 °C -0.8 °C 1021.9 hPa SW 5.0 km/h 5.0 km/h 43 % 0.0 mm
19:18 11.2 °C -0.6 °C 1021.9 hPa SSW 9.3 km/h 9.3 km/h 44 % 0.0 mm
19:23 11.1 °C -0.4 °C 1021.9 hPa SW 7.4 km/h 7.4 km/h 45 % 0.0 mm
19:28 11.0 °C -0.5 °C 1021.9 hPa WSW 5.6 km/h 5.6 km/h 45 % 0.0 mm
19:33 11.0 °C -0.5 °C 1021.9 hPa WSW 5.6 km/h 5.6 km/h 45 % 0.0 mm
19:38 10.7 °C -0.8 °C 1021.9 hPa SW 5.6 km/h 5.6 km/h 45 % 0.0 mm
19:43 10.6 °C -0.6 °C 1021.9 hPa WSW 7.4 km/h 7.4 km/h 46 % 0.0 mm
19:48 10.4 °C -0.4 °C 1021.9 hPa SW 7.4 km/h 7.4 km/h 47 % 0.0 mm
19:53 10.3 °C -0.6 °C 1021.9 hPa SW 6.1 km/h 6.1 km/h 47 % 0.0 mm
19:58 10.2 °C -0.3 °C 1021.9 hPa West 5.8 km/h 5.8 km/h 48 % 0.0 mm
20:03 10.1 °C -0.4 °C 1021.9 hPa WSW 5.6 km/h 5.6 km/h 48 % 0.0 mm
20:08 10.0 °C -0.2 °C 1021.9 hPa WSW 5.6 km/h 5.6 km/h 49 % 0.0 mm
20:13 10.0 °C 0.1 °C 1021.9 hPa SW 5.6 km/h 5.6 km/h 50 % 0.0 mm
20:18 9.7 °C -0.2 °C 1021.9 hPa SW 7.4 km/h 7.4 km/h 50 % 0.0 mm
20:23 9.6 °C -0.3 °C 1021.9 hPa WSW 5.6 km/h 5.6 km/h 50 % 0.0 mm
20:28 9.6 °C -0.1 °C 1022.9 hPa WSW 5.6 km/h 5.6 km/h 51 % 0.0 mm
20:33 9.5 °C -0.2 °C 1022.9 hPa WSW 3.7 km/h 3.7 km/h 51 % 0.0 mm
20:38 9.5 °C -0.2 °C 1022.9 hPa SSW 5.6 km/h 5.6 km/h 51 % 0.0 mm
20:43 9.4 °C -0.2 °C 1022.9 hPa WSW 3.7 km/h 3.7 km/h 51 % 0.0 mm
20:48 9.4 °C 0.0 °C 1022.9 hPa SW 5.6 km/h 5.6 km/h 52 % 0.0 mm
20:53 9.4 °C 0.0 °C 1022.9 hPa WSW 5.6 km/h 5.6 km/h 52 % 0.0 mm
20:58 9.3 °C -0.1 °C 1022.9 hPa SW 4.7 km/h 4.7 km/h 52 % 0.0 mm
21:03 9.3 °C -0.1 °C 1022.9 hPa WSW 5.6 km/h 5.6 km/h 52 % 0.0 mm
21:08 9.1 °C 0.0 °C 1022.9 hPa SW 5.6 km/h 5.6 km/h 53 % 0.0 mm
21:13 9.0 °C 0.2 °C 1022.9 hPa WSW 5.6 km/h 5.6 km/h 54 % 0.0 mm
21:18 9.1 °C 0.5 °C 1022.9 hPa WSW 5.6 km/h 5.6 km/h 55 % 0.0 mm
21:23 9.0 °C 0.4 °C 1022.9 hPa SW 3.7 km/h 3.7 km/h 55 % 0.0 mm
21:28 9.0 °C 0.4 °C 1022.9 hPa SW 7.4 km/h 7.4 km/h 55 % 0.0 mm
21:33 8.9 °C 0.6 °C 1022.9 hPa SW 4.7 km/h 4.7 km/h 56 % 0.0 mm
21:38 8.7 °C 0.4 °C 1022.9 hPa SW 5.8 km/h 5.8 km/h 56 % 0.0 mm
21:43 8.7 °C 0.7 °C 1022.9 hPa WSW 3.9 km/h 3.9 km/h 57 % 0.0 mm
21:48 8.6 °C 0.8 °C 1022.9 hPa WSW 3.9 km/h 3.9 km/h 58 % 0.0 mm
21:58 8.6 °C 1.1 °C 1022.9 hPa WSW 3.7 km/h   59 % 0.0 mm
22:03 8.6 °C 1.1 °C 1022.9 hPa WSW 3.7 km/h 3.7 km/h 59 % 0.0 mm
22:08 8.5 °C 0.9 °C 1022.9 hPa SW 3.7 km/h 3.7 km/h 59 % 0.0 mm
22:13 8.5 °C 1.4 °C 1022.9 hPa East 3.7 km/h   61 % 0.0 mm
22:18 8.4 °C 1.3 °C 1022.9 hPa ESE 4.7 km/h 4.7 km/h 61 % 0.0 mm
22:23 8.3 °C 1.2 °C 1022.9 hPa East 3.7 km/h 3.7 km/h 61 % 0.0 mm
22:28 8.2 °C 1.1 °C 1022.9 hPa East 1.9 km/h   61 % 0.0 mm
22:33 8.2 °C 1.1 °C 1022.9 hPa ENE 3.7 km/h 3.7 km/h 61 % 0.0 mm
22:38 8.0 °C 0.9 °C 1022.9 hPa ENE 2.3 km/h 2.3 km/h 61 % 0.0 mm
22:43 7.8 °C 0.7 °C 1022.9 hPa NE 1.9 km/h 1.9 km/h 61 % 0.0 mm
22:48 7.7 °C 0.7 °C 1022.9 hPa Calm     61 % 0.0 mm
22:53 7.6 °C 0.3 °C 1022.9 hPa Calm     60 % 0.0 mm
23:03 7.4 °C 0.4 °C 1022.9 hPa Calm     61 % 0.0 mm
23:08 7.3 °C 0.1 °C 1022.9 hPa Calm     60 % 0.0 mm
23:13 7.2 °C 0.2 °C 1021.9 hPa Calm     61 % 0.0 mm
23:18 7.2 °C 0.2 °C 1021.9 hPa Calm     61 % 0.0 mm
23:23 7.2 °C 0.2 °C 1021.9 hPa Calm     61 % 0.0 mm
23:28 7.1 °C 0.1 °C 1022.9 hPa Calm     61 % 0.0 mm
23:33 7.0 °C 0.0 °C 1022.9 hPa Calm     61 % 0.0 mm
23:38 7.0 °C 0.0 °C 1022.9 hPa Calm     61 % 0.0 mm
23:43 6.9 °C -0.1 °C 1022.9 hPa Calm     61 % 0.0 mm
23:48 6.8 °C -0.2 °C 1022.9 hPa NE 1.9 km/h 1.9 km/h 61 % 0.0 mm
23:53 6.8 °C -0.2 °C 1022.9 hPa Calm     61 % 0.0 mm
23:58 6.7 °C -0.3 °C 1021.9 hPa Calm     61 % 0.0 mm
Meteo Sesrovires
Elogis d' Weather Underground - 3.25 mb

Guio original per  Jim McMurry - jmcmurry@mwt.net Adaptat per a la plantilla per  Wim van der Kuil - Leuven-Template.eu

Trobareu la nostra informacio del temps tambe a:

Weather Underground

AWEKAS